sensor_id;sensor_type;location;lat;lon;timestamp;P1;durP1;ratioP1;P2;durP2;ratioP2
11064;SDS011;5585;52.530;7.320;2024-01-27T00:00:45;9.33;;;3.17;;
11064;SDS011;5585;52.530;7.320;2024-01-27T00:03:11;8.77;;;2.67;;
11064;SDS011;5585;52.530;7.320;2024-01-27T00:05:39;8.77;;;2.80;;
11064;SDS011;5585;52.530;7.320;2024-01-27T00:08:06;11.93;;;3.23;;
11064;SDS011;5585;52.530;7.320;2024-01-27T00:10:33;7.93;;;2.93;;
11064;SDS011;5585;52.530;7.320;2024-01-27T00:13:00;11.87;;;2.90;;
11064;SDS011;5585;52.530;7.320;2024-01-27T00:15:26;12.07;;;3.33;;
11064;SDS011;5585;52.530;7.320;2024-01-27T00:17:52;10.07;;;2.67;;
11064;SDS011;5585;52.530;7.320;2024-01-27T00:20:19;9.83;;;2.93;;
11064;SDS011;5585;52.530;7.320;2024-01-27T00:22:47;7.77;;;2.83;;
11064;SDS011;5585;52.530;7.320;2024-01-27T00:25:13;10.17;;;2.73;;
11064;SDS011;5585;52.530;7.320;2024-01-27T00:27:40;7.77;;;2.40;;
11064;SDS011;5585;52.530;7.320;2024-01-27T00:30:07;9.33;;;2.97;;
11064;SDS011;5585;52.530;7.320;2024-01-27T00:32:33;9.80;;;2.90;;
11064;SDS011;5585;52.530;7.320;2024-01-27T00:35:00;8.83;;;2.80;;
11064;SDS011;5585;52.530;7.320;2024-01-27T00:37:26;12.57;;;2.80;;
11064;SDS011;5585;52.530;7.320;2024-01-27T00:39:54;11.47;;;3.57;;
11064;SDS011;5585;52.530;7.320;2024-01-27T00:42:21;9.97;;;3.37;;
11064;SDS011;5585;52.530;7.320;2024-01-27T00:44:49;9.10;;;2.97;;
11064;SDS011;5585;52.530;7.320;2024-01-27T00:47:15;9.70;;;2.67;;
11064;SDS011;5585;52.530;7.320;2024-01-27T00:49:42;13.17;;;3.20;;
11064;SDS011;5585;52.530;7.320;2024-01-27T00:52:08;12.77;;;3.00;;
11064;SDS011;5585;52.530;7.320;2024-01-27T00:54:34;12.97;;;3.93;;
11064;SDS011;5585;52.530;7.320;2024-01-27T00:57:02;14.77;;;3.53;;
11064;SDS011;5585;52.530;7.320;2024-01-27T00:59:29;11.67;;;3.50;;
11064;SDS011;5585;52.530;7.320;2024-01-27T01:01:55;9.53;;;3.10;;
11064;SDS011;5585;52.530;7.320;2024-01-27T01:04:22;9.23;;;2.53;;
11064;SDS011;5585;52.530;7.320;2024-01-27T01:06:48;11.30;;;2.50;;
11064;SDS011;5585;52.530;7.320;2024-01-27T01:09:15;10.57;;;3.03;;
11064;SDS011;5585;52.530;7.320;2024-01-27T01:11:41;10.03;;;2.87;;
11064;SDS011;5585;52.530;7.320;2024-01-27T01:14:09;10.93;;;3.20;;
11064;SDS011;5585;52.530;7.320;2024-01-27T01:16:36;9.97;;;3.30;;
11064;SDS011;5585;52.530;7.320;2024-01-27T01:19:03;8.33;;;2.80;;
11064;SDS011;5585;52.530;7.320;2024-01-27T01:21:29;9.20;;;3.00;;
11064;SDS011;5585;52.530;7.320;2024-01-27T01:23:55;9.07;;;2.80;;
11064;SDS011;5585;52.530;7.320;2024-01-27T01:26:22;8.60;;;2.57;;
11064;SDS011;5585;52.530;7.320;2024-01-27T01:28:49;8.80;;;2.73;;
11064;SDS011;5585;52.530;7.320;2024-01-27T01:31:16;8.87;;;2.73;;
11064;SDS011;5585;52.530;7.320;2024-01-27T01:33:43;8.07;;;3.40;;
11064;SDS011;5585;52.530;7.320;2024-01-27T01:36:10;10.70;;;3.00;;
11064;SDS011;5585;52.530;7.320;2024-01-27T01:38:36;10.70;;;3.10;;
11064;SDS011;5585;52.530;7.320;2024-01-27T01:41:03;13.17;;;3.53;;
11064;SDS011;5585;52.530;7.320;2024-01-27T01:43:29;9.60;;;2.93;;
11064;SDS011;5585;52.530;7.320;2024-01-27T01:45:56;8.57;;;2.77;;
11064;SDS011;5585;52.530;7.320;2024-01-27T01:48:23;10.67;;;3.33;;
11064;SDS011;5585;52.530;7.320;2024-01-27T01:50:50;11.13;;;3.37;;
11064;SDS011;5585;52.530;7.320;2024-01-27T01:53:16;10.13;;;3.10;;
11064;SDS011;5585;52.530;7.320;2024-01-27T01:55:44;7.30;;;2.50;;
11064;SDS011;5585;52.530;7.320;2024-01-27T01:58:11;8.63;;;2.83;;
11064;SDS011;5585;52.530;7.320;2024-01-27T02:00:38;10.97;;;3.77;;
11064;SDS011;5585;52.530;7.320;2024-01-27T02:03:04;12.43;;;3.43;;
11064;SDS011;5585;52.530;7.320;2024-01-27T02:05:32;7.43;;;2.70;;
11064;SDS011;5585;52.530;7.320;2024-01-27T02:07:59;7.67;;;2.80;;
11064;SDS011;5585;52.530;7.320;2024-01-27T02:10:27;8.30;;;2.80;;
11064;SDS011;5585;52.530;7.320;2024-01-27T02:13:01;11.53;;;3.57;;
11064;SDS011;5585;52.530;7.320;2024-01-27T02:15:27;8.50;;;2.80;;
11064;SDS011;5585;52.530;7.320;2024-01-27T02:17:54;7.73;;;2.90;;
11064;SDS011;5585;52.530;7.320;2024-01-27T02:20:20;6.43;;;2.50;;
11064;SDS011;5585;52.530;7.320;2024-01-27T02:22:48;9.23;;;2.97;;
11064;SDS011;5585;52.530;7.320;2024-01-27T02:25:16;8.97;;;2.60;;
11064;SDS011;5585;52.530;7.320;2024-01-27T02:27:42;8.13;;;2.60;;
11064;SDS011;5585;52.530;7.320;2024-01-27T02:30:09;8.87;;;3.07;;
11064;SDS011;5585;52.530;7.320;2024-01-27T02:32:35;10.43;;;2.93;;
11064;SDS011;5585;52.530;7.320;2024-01-27T02:35:02;6.83;;;2.40;;
11064;SDS011;5585;52.530;7.320;2024-01-27T02:37:28;6.90;;;2.20;;
11064;SDS011;5585;52.530;7.320;2024-01-27T02:39:55;8.13;;;2.70;;
11064;SDS011;5585;52.530;7.320;2024-01-27T02:42:22;9.90;;;2.80;;
11064;SDS011;5585;52.530;7.320;2024-01-27T02:44:49;9.93;;;3.17;;
11064;SDS011;5585;52.530;7.320;2024-01-27T02:47:16;7.07;;;2.63;;
11064;SDS011;5585;52.530;7.320;2024-01-27T02:49:43;9.03;;;2.60;;
11064;SDS011;5585;52.530;7.320;2024-01-27T02:52:09;7.47;;;2.47;;
11064;SDS011;5585;52.530;7.320;2024-01-27T02:54:35;8.43;;;2.87;;
11064;SDS011;5585;52.530;7.320;2024-01-27T02:57:02;10.37;;;2.87;;
11064;SDS011;5585;52.530;7.320;2024-01-27T02:59:30;12.43;;;2.87;;
11064;SDS011;5585;52.530;7.320;2024-01-27T03:01:56;9.07;;;2.73;;
11064;SDS011;5585;52.530;7.320;2024-01-27T03:04:23;9.43;;;2.93;;
11064;SDS011;5585;52.530;7.320;2024-01-27T03:06:49;9.40;;;2.73;;
11064;SDS011;5585;52.530;7.320;2024-01-27T03:09:16;7.57;;;2.57;;
11064;SDS011;5585;52.530;7.320;2024-01-27T03:11:43;8.17;;;3.03;;
11064;SDS011;5585;52.530;7.320;2024-01-27T03:14:09;11.47;;;2.80;;
11064;SDS011;5585;52.530;7.320;2024-01-27T03:16:38;10.07;;;2.53;;
11064;SDS011;5585;52.530;7.320;2024-01-27T03:19:04;7.07;;;2.57;;
11064;SDS011;5585;52.530;7.320;2024-01-27T03:21:31;8.80;;;2.60;;
11064;SDS011;5585;52.530;7.320;2024-01-27T03:23:58;8.30;;;2.60;;
11064;SDS011;5585;52.530;7.320;2024-01-27T03:26:24;8.33;;;2.57;;
11064;SDS011;5585;52.530;7.320;2024-01-27T03:28:51;8.77;;;2.70;;
11064;SDS011;5585;52.530;7.320;2024-01-27T03:31:17;8.57;;;2.90;;
11064;SDS011;5585;52.530;7.320;2024-01-27T03:33:45;10.80;;;2.93;;
11064;SDS011;5585;52.530;7.320;2024-01-27T03:36:12;5.70;;;2.60;;
11064;SDS011;5585;52.530;7.320;2024-01-27T03:38:39;9.17;;;2.90;;
11064;SDS011;5585;52.530;7.320;2024-01-27T03:41:06;7.17;;;3.13;;
11064;SDS011;5585;52.530;7.320;2024-01-27T03:43:33;9.40;;;2.83;;
11064;SDS011;5585;52.530;7.320;2024-01-27T03:45:59;10.00;;;3.50;;
11064;SDS011;5585;52.530;7.320;2024-01-27T03:48:26;6.37;;;2.23;;
11064;SDS011;5585;52.530;7.320;2024-01-27T03:50:54;8.60;;;2.60;;
11064;SDS011;5585;52.530;7.320;2024-01-27T03:53:20;8.43;;;2.83;;
11064;SDS011;5585;52.530;7.320;2024-01-27T03:55:47;8.40;;;3.17;;
11064;SDS011;5585;52.530;7.320;2024-01-27T03:58:13;11.07;;;2.80;;
11064;SDS011;5585;52.530;7.320;2024-01-27T04:00:39;7.13;;;2.80;;
11064;SDS011;5585;52.530;7.320;2024-01-27T04:03:06;12.20;;;3.10;;
11064;SDS011;5585;52.530;7.320;2024-01-27T04:05:34;7.87;;;2.70;;
11064;SDS011;5585;52.530;7.320;2024-01-27T04:08:02;11.37;;;3.10;;
11064;SDS011;5585;52.530;7.320;2024-01-27T04:10:29;7.60;;;2.90;;
11064;SDS011;5585;52.530;7.320;2024-01-27T04:12:55;6.50;;;2.73;;
11064;SDS011;5585;52.530;7.320;2024-01-27T04:15:22;5.20;;;2.30;;
11064;SDS011;5585;52.530;7.320;2024-01-27T04:17:48;7.47;;;3.50;;
11064;SDS011;5585;52.530;7.320;2024-01-27T04:20:15;10.50;;;3.20;;
11064;SDS011;5585;52.530;7.320;2024-01-27T04:22:41;8.73;;;2.70;;
11064;SDS011;5585;52.530;7.320;2024-01-27T04:25:09;8.87;;;3.10;;
11064;SDS011;5585;52.530;7.320;2024-01-27T04:27:38;8.20;;;3.30;;
11064;SDS011;5585;52.530;7.320;2024-01-27T04:30:06;9.20;;;3.30;;
11064;SDS011;5585;52.530;7.320;2024-01-27T04:32:32;9.13;;;3.50;;
11064;SDS011;5585;52.530;7.320;2024-01-27T04:34:59;8.07;;;3.53;;
11064;SDS011;5585;52.530;7.320;2024-01-27T04:37:25;7.37;;;3.03;;
11064;SDS011;5585;52.530;7.320;2024-01-27T04:39:51;8.67;;;3.37;;
11064;SDS011;5585;52.530;7.320;2024-01-27T04:42:19;8.00;;;2.90;;
11064;SDS011;5585;52.530;7.320;2024-01-27T04:44:46;9.70;;;3.27;;
11064;SDS011;5585;52.530;7.320;2024-01-27T04:47:12;7.60;;;3.00;;
11064;SDS011;5585;52.530;7.320;2024-01-27T04:49:39;7.43;;;3.40;;
11064;SDS011;5585;52.530;7.320;2024-01-27T04:52:05;11.53;;;3.70;;
11064;SDS011;5585;52.530;7.320;2024-01-27T04:54:32;12.57;;;3.53;;
11064;SDS011;5585;52.530;7.320;2024-01-27T04:56:58;9.80;;;3.90;;
11064;SDS011;5585;52.530;7.320;2024-01-27T04:59:26;11.03;;;3.87;;
11064;SDS011;5585;52.530;7.320;2024-01-27T05:01:52;9.80;;;3.17;;
11064;SDS011;5585;52.530;7.320;2024-01-27T05:04:19;11.80;;;4.07;;
11064;SDS011;5585;52.530;7.320;2024-01-27T05:06:46;8.57;;;3.30;;
11064;SDS011;5585;52.530;7.320;2024-01-27T05:09:12;6.87;;;3.53;;
11064;SDS011;5585;52.530;7.320;2024-01-27T05:11:39;10.77;;;3.90;;
11064;SDS011;5585;52.530;7.320;2024-01-27T05:14:07;8.67;;;3.53;;
11064;SDS011;5585;52.530;7.320;2024-01-27T05:16:35;8.57;;;3.43;;
11064;SDS011;5585;52.530;7.320;2024-01-27T05:19:02;9.47;;;3.93;;
11064;SDS011;5585;52.530;7.320;2024-01-27T05:21:28;11.47;;;4.10;;
11064;SDS011;5585;52.530;7.320;2024-01-27T05:23:55;9.00;;;3.87;;
11064;SDS011;5585;52.530;7.320;2024-01-27T05:26:21;9.63;;;4.17;;
11064;SDS011;5585;52.530;7.320;2024-01-27T05:28:47;11.67;;;4.53;;
11064;SDS011;5585;52.530;7.320;2024-01-27T05:31:14;9.37;;;3.77;;
11064;SDS011;5585;52.530;7.320;2024-01-27T05:33:42;7.80;;;4.07;;
11064;SDS011;5585;52.530;7.320;2024-01-27T05:36:08;9.63;;;4.10;;
11064;SDS011;5585;52.530;7.320;2024-01-27T05:38:35;9.97;;;3.90;;
11064;SDS011;5585;52.530;7.320;2024-01-27T05:41:01;9.00;;;4.33;;
11064;SDS011;5585;52.530;7.320;2024-01-27T05:43:28;11.43;;;4.17;;
11064;SDS011;5585;52.530;7.320;2024-01-27T05:45:54;12.23;;;4.60;;
11064;SDS011;5585;52.530;7.320;2024-01-27T05:48:21;11.27;;;4.63;;
11064;SDS011;5585;52.530;7.320;2024-01-27T05:50:56;8.40;;;3.87;;
11064;SDS011;5585;52.530;7.320;2024-01-27T05:53:22;7.07;;;3.80;;
11064;SDS011;5585;52.530;7.320;2024-01-27T05:55:49;7.43;;;4.17;;
11064;SDS011;5585;52.530;7.320;2024-01-27T05:58:15;10.23;;;4.47;;
11064;SDS011;5585;52.530;7.320;2024-01-27T06:00:42;11.87;;;4.07;;
11064;SDS011;5585;52.530;7.320;2024-01-27T06:03:08;11.53;;;4.50;;
11064;SDS011;5585;52.530;7.320;2024-01-27T06:05:35;9.43;;;4.40;;
11064;SDS011;5585;52.530;7.320;2024-01-27T06:08:03;10.73;;;4.37;;
11064;SDS011;5585;52.530;7.320;2024-01-27T06:10:29;11.07;;;4.67;;
11064;SDS011;5585;52.530;7.320;2024-01-27T06:12:56;8.97;;;4.80;;
11064;SDS011;5585;52.530;7.320;2024-01-27T06:15:22;8.50;;;4.57;;
11064;SDS011;5585;52.530;7.320;2024-01-27T06:17:49;12.97;;;4.80;;
11064;SDS011;5585;52.530;7.320;2024-01-27T06:20:15;8.03;;;4.60;;
11064;SDS011;5585;52.530;7.320;2024-01-27T06:22:42;10.37;;;5.00;;
11064;SDS011;5585;52.530;7.320;2024-01-27T06:25:10;9.13;;;4.70;;
11064;SDS011;5585;52.530;7.320;2024-01-27T06:27:36;9.53;;;4.93;;
11064;SDS011;5585;52.530;7.320;2024-01-27T06:30:03;10.80;;;5.30;;
11064;SDS011;5585;52.530;7.320;2024-01-27T06:32:30;7.53;;;4.70;;
11064;SDS011;5585;52.530;7.320;2024-01-27T06:34:56;9.33;;;4.80;;
11064;SDS011;5585;52.530;7.320;2024-01-27T06:37:22;11.87;;;5.00;;
11064;SDS011;5585;52.530;7.320;2024-01-27T06:39:49;9.93;;;4.40;;
11064;SDS011;5585;52.530;7.320;2024-01-27T06:42:17;13.43;;;5.23;;
11064;SDS011;5585;52.530;7.320;2024-01-27T06:44:43;10.83;;;4.93;;
11064;SDS011;5585;52.530;7.320;2024-01-27T06:47:10;9.50;;;4.93;;
11064;SDS011;5585;52.530;7.320;2024-01-27T06:49:36;8.83;;;5.17;;
11064;SDS011;5585;52.530;7.320;2024-01-27T06:52:03;10.73;;;5.30;;
11064;SDS011;5585;52.530;7.320;2024-01-27T06:54:29;11.97;;;4.63;;
11064;SDS011;5585;52.530;7.320;2024-01-27T06:56:56;8.07;;;4.73;;
11064;SDS011;5585;52.530;7.320;2024-01-27T06:59:24;8.60;;;5.10;;
11064;SDS011;5585;52.530;7.320;2024-01-27T07:01:50;12.13;;;5.00;;
11064;SDS011;5585;52.530;7.320;2024-01-27T07:04:17;6.97;;;4.47;;
11064;SDS011;5585;52.530;7.320;2024-01-27T07:06:43;8.80;;;4.87;;
11064;SDS011;5585;52.530;7.320;2024-01-27T07:09:10;7.97;;;4.80;;
11064;SDS011;5585;52.530;7.320;2024-01-27T07:11:36;9.57;;;5.13;;
11064;SDS011;5585;52.530;7.320;2024-01-27T07:14:03;9.43;;;4.43;;
11064;SDS011;5585;52.530;7.320;2024-01-27T07:16:33;9.93;;;5.00;;
11064;SDS011;5585;52.530;7.320;2024-01-27T07:19:00;11.20;;;5.03;;
11064;SDS011;5585;52.530;7.320;2024-01-27T07:21:26;10.87;;;4.97;;
11064;SDS011;5585;52.530;7.320;2024-01-27T07:23:54;9.17;;;4.87;;
11064;SDS011;5585;52.530;7.320;2024-01-27T07:26:20;12.90;;;6.60;;
11064;SDS011;5585;52.530;7.320;2024-01-27T07:28:47;9.00;;;5.97;;
11064;SDS011;5585;52.530;7.320;2024-01-27T07:31:13;10.33;;;5.87;;
11064;SDS011;5585;52.530;7.320;2024-01-27T07:33:41;13.73;;;5.13;;
11064;SDS011;5585;52.530;7.320;2024-01-27T07:36:07;8.87;;;4.97;;
11064;SDS011;5585;52.530;7.320;2024-01-27T07:38:36;7.87;;;4.53;;
11064;SDS011;5585;52.530;7.320;2024-01-27T07:41:03;12.00;;;5.10;;
11064;SDS011;5585;52.530;7.320;2024-01-27T07:43:29;9.50;;;4.83;;
11064;SDS011;5585;52.530;7.320;2024-01-27T07:45:56;12.57;;;5.37;;
11064;SDS011;5585;52.530;7.320;2024-01-27T07:48:23;8.67;;;4.73;;
11064;SDS011;5585;52.530;7.320;2024-01-27T07:50:51;9.43;;;5.27;;
11064;SDS011;5585;52.530;7.320;2024-01-27T07:53:17;12.37;;;7.10;;
11064;SDS011;5585;52.530;7.320;2024-01-27T07:55:44;22.57;;;13.77;;
11064;SDS011;5585;52.530;7.320;2024-01-27T07:58:10;18.40;;;13.03;;
11064;SDS011;5585;52.530;7.320;2024-01-27T08:00:37;17.00;;;10.10;;
11064;SDS011;5585;52.530;7.320;2024-01-27T08:03:03;14.37;;;8.93;;
11064;SDS011;5585;52.530;7.320;2024-01-27T08:05:30;13.33;;;7.70;;
11064;SDS011;5585;52.530;7.320;2024-01-27T08:07:58;13.63;;;6.97;;
11064;SDS011;5585;52.530;7.320;2024-01-27T08:10:25;9.53;;;5.97;;
11064;SDS011;5585;52.530;7.320;2024-01-27T08:12:51;11.27;;;5.87;;
11064;SDS011;5585;52.530;7.320;2024-01-27T08:15:17;9.53;;;5.67;;
11064;SDS011;5585;52.530;7.320;2024-01-27T08:17:44;9.43;;;5.87;;
11064;SDS011;5585;52.530;7.320;2024-01-27T08:20:11;9.73;;;6.03;;
11064;SDS011;5585;52.530;7.320;2024-01-27T08:22:37;10.87;;;5.90;;
11064;SDS011;5585;52.530;7.320;2024-01-27T08:25:06;10.43;;;5.30;;
11064;SDS011;5585;52.530;7.320;2024-01-27T08:27:32;9.77;;;5.53;;
11064;SDS011;5585;52.530;7.320;2024-01-27T08:29:59;10.83;;;5.20;;
11064;SDS011;5585;52.530;7.320;2024-01-27T08:32:25;10.00;;;5.40;;
11064;SDS011;5585;52.530;7.320;2024-01-27T08:34:52;9.13;;;5.40;;
11064;SDS011;5585;52.530;7.320;2024-01-27T08:37:19;9.80;;;5.40;;
11064;SDS011;5585;52.530;7.320;2024-01-27T08:39:45;9.70;;;5.40;;
11064;SDS011;5585;52.530;7.320;2024-01-27T08:42:13;10.73;;;5.30;;
11064;SDS011;5585;52.530;7.320;2024-01-27T08:44:40;11.27;;;5.73;;
11064;SDS011;5585;52.530;7.320;2024-01-27T08:47:06;8.73;;;5.37;;
11064;SDS011;5585;52.530;7.320;2024-01-27T08:49:33;10.73;;;5.63;;
11064;SDS011;5585;52.530;7.320;2024-01-27T08:51:59;10.90;;;5.53;;
11064;SDS011;5585;52.530;7.320;2024-01-27T08:54:25;12.37;;;5.77;;
11064;SDS011;5585;52.530;7.320;2024-01-27T08:56:52;10.13;;;5.30;;
11064;SDS011;5585;52.530;7.320;2024-01-27T08:59:20;11.33;;;5.60;;
11064;SDS011;5585;52.530;7.320;2024-01-27T09:01:46;7.40;;;5.10;;
11064;SDS011;5585;52.530;7.320;2024-01-27T09:04:13;11.03;;;5.57;;
11064;SDS011;5585;52.530;7.320;2024-01-27T09:06:39;15.37;;;6.00;;
11064;SDS011;5585;52.530;7.320;2024-01-27T09:09:05;8.27;;;5.27;;
11064;SDS011;5585;52.530;7.320;2024-01-27T09:11:33;9.90;;;4.90;;
11064;SDS011;5585;52.530;7.320;2024-01-27T09:14:00;10.67;;;5.30;;
11064;SDS011;5585;52.530;7.320;2024-01-27T09:16:28;11.73;;;5.20;;
11064;SDS011;5585;52.530;7.320;2024-01-27T09:18:54;13.07;;;5.80;;
11064;SDS011;5585;52.530;7.320;2024-01-27T09:21:20;10.27;;;5.10;;
11064;SDS011;5585;52.530;7.320;2024-01-27T09:23:53;8.03;;;4.90;;
11064;SDS011;5585;52.530;7.320;2024-01-27T09:26:19;11.73;;;5.57;;
11064;SDS011;5585;52.530;7.320;2024-01-27T09:28:47;10.97;;;5.30;;
11064;SDS011;5585;52.530;7.320;2024-01-27T09:31:19;9.60;;;4.83;;
11064;SDS011;5585;52.530;7.320;2024-01-27T09:33:48;8.40;;;5.00;;
11064;SDS011;5585;52.530;7.320;2024-01-27T09:36:14;9.60;;;5.27;;
11064;SDS011;5585;52.530;7.320;2024-01-27T09:38:41;15.93;;;6.30;;
11064;SDS011;5585;52.530;7.320;2024-01-27T09:41:07;9.83;;;5.30;;
11064;SDS011;5585;52.530;7.320;2024-01-27T09:43:34;9.73;;;5.23;;
11064;SDS011;5585;52.530;7.320;2024-01-27T09:46:01;10.98;;;5.28;;
11064;SDS011;5585;52.530;7.320;2024-01-27T09:48:28;13.03;;;5.77;;
11064;SDS011;5585;52.530;7.320;2024-01-27T09:50:58;10.60;;;4.80;;
11064;SDS011;5585;52.530;7.320;2024-01-27T09:53:24;6.87;;;4.17;;
11064;SDS011;5585;52.530;7.320;2024-01-27T09:55:51;6.77;;;4.30;;
11064;SDS011;5585;52.530;7.320;2024-01-27T09:58:18;8.90;;;4.20;;
11064;SDS011;5585;52.530;7.320;2024-01-27T10:00:45;9.77;;;5.27;;
11064;SDS011;5585;52.530;7.320;2024-01-27T10:03:12;12.97;;;5.67;;
11064;SDS011;5585;52.530;7.320;2024-01-27T10:05:38;9.77;;;5.03;;
11064;SDS011;5585;52.530;7.320;2024-01-27T10:08:07;8.87;;;4.63;;
11064;SDS011;5585;52.530;7.320;2024-01-27T10:10:33;14.17;;;5.20;;
11064;SDS011;5585;52.530;7.320;2024-01-27T10:13:00;11.63;;;5.73;;
11064;SDS011;5585;52.530;7.320;2024-01-27T10:15:26;7.83;;;4.00;;
11064;SDS011;5585;52.530;7.320;2024-01-27T10:17:52;12.93;;;4.60;;
11064;SDS011;5585;52.530;7.320;2024-01-27T10:20:19;8.13;;;4.80;;
11064;SDS011;5585;52.530;7.320;2024-01-27T10:22:45;10.23;;;5.07;;
11064;SDS011;5585;52.530;7.320;2024-01-27T10:25:13;8.13;;;4.80;;
11064;SDS011;5585;52.530;7.320;2024-01-27T10:27:41;9.40;;;4.73;;
11064;SDS011;5585;52.530;7.320;2024-01-27T10:30:14;10.47;;;4.43;;
11064;SDS011;5585;52.530;7.320;2024-01-27T10:32:41;8.60;;;3.97;;
11064;SDS011;5585;52.530;7.320;2024-01-27T10:35:08;6.37;;;3.80;;
11064;SDS011;5585;52.530;7.320;2024-01-27T10:37:34;13.40;;;4.90;;
11064;SDS011;5585;52.530;7.320;2024-01-27T10:40:02;8.20;;;4.10;;
11064;SDS011;5585;52.530;7.320;2024-01-27T10:42:30;9.93;;;4.80;;
11064;SDS011;5585;52.530;7.320;2024-01-27T10:44:57;8.93;;;4.20;;
11064;SDS011;5585;52.530;7.320;2024-01-27T10:47:24;9.70;;;4.60;;
11064;SDS011;5585;52.530;7.320;2024-01-27T10:49:51;10.13;;;4.17;;
11064;SDS011;5585;52.530;7.320;2024-01-27T10:52:18;9.90;;;4.43;;
11064;SDS011;5585;52.530;7.320;2024-01-27T10:54:47;11.97;;;4.70;;
11064;SDS011;5585;52.530;7.320;2024-01-27T10:57:14;7.37;;;4.17;;
11064;SDS011;5585;52.530;7.320;2024-01-27T10:59:42;6.93;;;3.93;;
11064;SDS011;5585;52.530;7.320;2024-01-27T11:02:10;10.87;;;3.97;;
11064;SDS011;5585;52.530;7.320;2024-01-27T11:04:38;8.37;;;3.70;;
11064;SDS011;5585;52.530;7.320;2024-01-27T11:07:05;10.27;;;4.60;;
11064;SDS011;5585;52.530;7.320;2024-01-27T11:09:32;9.43;;;3.83;;
11064;SDS011;5585;52.530;7.320;2024-01-27T11:12:00;9.67;;;4.20;;
11064;SDS011;5585;52.530;7.320;2024-01-27T11:14:28;6.57;;;3.63;;
11064;SDS011;5585;52.530;7.320;2024-01-27T11:16:56;8.43;;;4.13;;
11064;SDS011;5585;52.530;7.320;2024-01-27T11:19:23;6.17;;;3.40;;
11064;SDS011;5585;52.530;7.320;2024-01-27T11:21:59;6.53;;;3.67;;
11064;SDS011;5585;52.530;7.320;2024-01-27T11:24:25;10.30;;;4.40;;
11064;SDS011;5585;52.530;7.320;2024-01-27T11:26:59;7.83;;;3.90;;
11064;SDS011;5585;52.530;7.320;2024-01-27T11:29:26;8.40;;;3.90;;
11064;SDS011;5585;52.530;7.320;2024-01-27T11:31:54;8.70;;;4.37;;
11064;SDS011;5585;52.530;7.320;2024-01-27T11:34:22;6.37;;;4.20;;
11064;SDS011;5585;52.530;7.320;2024-01-27T11:36:49;7.60;;;3.97;;
11064;SDS011;5585;52.530;7.320;2024-01-27T11:39:24;8.60;;;3.63;;
11064;SDS011;5585;52.530;7.320;2024-01-27T11:41:52;7.43;;;4.13;;
11064;SDS011;5585;52.530;7.320;2024-01-27T11:44:18;10.30;;;4.00;;
11064;SDS011;5585;52.530;7.320;2024-01-27T11:46:45;10.00;;;3.87;;
11064;SDS011;5585;52.530;7.320;2024-01-27T11:49:14;8.50;;;3.50;;
11064;SDS011;5585;52.530;7.320;2024-01-27T11:51:42;10.43;;;3.63;;
11064;SDS011;5585;52.530;7.320;2024-01-27T11:54:08;8.57;;;4.07;;
11064;SDS011;5585;52.530;7.320;2024-01-27T11:56:34;7.63;;;3.70;;
11064;SDS011;5585;52.530;7.320;2024-01-27T11:59:01;7.83;;;3.40;;
11064;SDS011;5585;52.530;7.320;2024-01-27T12:01:28;4.63;;;3.03;;
11064;SDS011;5585;52.530;7.320;2024-01-27T12:03:54;8.70;;;3.30;;
11064;SDS011;5585;52.530;7.320;2024-01-27T12:06:21;11.30;;;4.23;;
11064;SDS011;5585;52.530;7.320;2024-01-27T12:08:52;9.67;;;3.83;;
11064;SDS011;5585;52.530;7.320;2024-01-27T12:11:18;7.23;;;3.17;;
11064;SDS011;5585;52.530;7.320;2024-01-27T12:13:45;7.23;;;3.40;;
11064;SDS011;5585;52.530;7.320;2024-01-27T12:16:11;8.10;;;3.67;;
11064;SDS011;5585;52.530;7.320;2024-01-27T12:18:38;6.90;;;2.93;;
11064;SDS011;5585;52.530;7.320;2024-01-27T12:21:04;7.40;;;3.30;;
11064;SDS011;5585;52.530;7.320;2024-01-27T12:23:31;9.23;;;3.50;;
11064;SDS011;5585;52.530;7.320;2024-01-27T12:25:58;10.57;;;3.97;;
11064;SDS011;5585;52.530;7.320;2024-01-27T12:28:25;6.93;;;3.40;;
11064;SDS011;5585;52.530;7.320;2024-01-27T12:30:52;6.15;;;3.00;;
11064;SDS011;5585;52.530;7.320;2024-01-27T12:33:19;7.97;;;3.37;;
11064;SDS011;5585;52.530;7.320;2024-01-27T12:35:49;7.93;;;3.50;;
11064;SDS011;5585;52.530;7.320;2024-01-27T12:38:17;8.97;;;3.13;;
11064;SDS011;5585;52.530;7.320;2024-01-27T12:40:43;11.67;;;3.57;;
11064;SDS011;5585;52.530;7.320;2024-01-27T12:43:11;8.88;;;3.65;;
11064;SDS011;5585;52.530;7.320;2024-01-27T12:45:37;10.63;;;3.53;;
11064;SDS011;5585;52.530;7.320;2024-01-27T12:48:04;10.88;;;4.10;;
11064;SDS011;5585;52.530;7.320;2024-01-27T12:50:31;7.25;;;3.25;;
11064;SDS011;5585;52.530;7.320;2024-01-27T12:52:58;6.97;;;3.73;;
11064;SDS011;5585;52.530;7.320;2024-01-27T12:55:25;6.13;;;3.00;;
11064;SDS011;5585;52.530;7.320;2024-01-27T12:57:51;7.20;;;3.10;;
11064;SDS011;5585;52.530;7.320;2024-01-27T13:00:19;8.02;;;3.05;;
11064;SDS011;5585;52.530;7.320;2024-01-27T13:02:46;7.87;;;3.20;;
11064;SDS011;5585;52.530;7.320;2024-01-27T13:05:13;11.47;;;3.43;;
11064;SDS011;5585;52.530;7.320;2024-01-27T13:07:39;6.88;;;3.10;;
11064;SDS011;5585;52.530;7.320;2024-01-27T13:10:06;7.30;;;3.30;;
11064;SDS011;5585;52.530;7.320;2024-01-27T13:12:32;8.57;;;3.30;;
11064;SDS011;5585;52.530;7.320;2024-01-27T13:15:00;6.63;;;3.00;;
11064;SDS011;5585;52.530;7.320;2024-01-27T13:17:28;7.25;;;3.47;;
11064;SDS011;5585;52.530;7.320;2024-01-27T13:19:54;6.32;;;3.10;;
11064;SDS011;5585;52.530;7.320;2024-01-27T13:22:20;6.50;;;2.72;;
11064;SDS011;5585;52.530;7.320;2024-01-27T13:24:49;6.07;;;2.92;;
11064;SDS011;5585;52.530;7.320;2024-01-27T13:27:16;5.82;;;2.80;;
11064;SDS011;5585;52.530;7.320;2024-01-27T13:29:42;8.45;;;2.70;;
11064;SDS011;5585;52.530;7.320;2024-01-27T13:32:10;5.95;;;2.55;;
11064;SDS011;5585;52.530;7.320;2024-01-27T13:34:38;6.47;;;3.08;;
11064;SDS011;5585;52.530;7.320;2024-01-27T13:37:04;6.60;;;2.78;;
11064;SDS011;5585;52.530;7.320;2024-01-27T13:39:31;7.07;;;2.45;;
11064;SDS011;5585;52.530;7.320;2024-01-27T13:41:57;6.80;;;2.70;;
11064;SDS011;5585;52.530;7.320;2024-01-27T13:44:24;5.20;;;3.08;;
11064;SDS011;5585;52.530;7.320;2024-01-27T13:46:52;6.67;;;2.90;;
11064;SDS011;5585;52.530;7.320;2024-01-27T13:49:19;7.17;;;2.80;;
11064;SDS011;5585;52.530;7.320;2024-01-27T13:51:47;6.45;;;2.47;;
11064;SDS011;5585;52.530;7.320;2024-01-27T13:54:13;7.65;;;2.63;;
11064;SDS011;5585;52.530;7.320;2024-01-27T13:56:40;4.43;;;2.63;;
11064;SDS011;5585;52.530;7.320;2024-01-27T13:59:07;8.70;;;2.80;;
11064;SDS011;5585;52.530;7.320;2024-01-27T14:01:34;5.95;;;2.63;;
11064;SDS011;5585;52.530;7.320;2024-01-27T14:04:00;8.77;;;2.72;;
11064;SDS011;5585;52.530;7.320;2024-01-27T14:06:27;6.25;;;3.10;;
11064;SDS011;5585;52.530;7.320;2024-01-27T14:08:54;10.10;;;3.35;;
11064;SDS011;5585;52.530;7.320;2024-01-27T14:11:21;6.30;;;2.78;;
11064;SDS011;5585;52.530;7.320;2024-01-27T14:13:48;8.65;;;3.10;;
11064;SDS011;5585;52.530;7.320;2024-01-27T14:16:14;7.90;;;2.97;;
11064;SDS011;5585;52.530;7.320;2024-01-27T14:18:40;7.63;;;3.22;;
11064;SDS011;5585;52.530;7.320;2024-01-27T14:21:07;5.80;;;3.00;;
11064;SDS011;5585;52.530;7.320;2024-01-27T14:23:34;8.73;;;3.80;;
11064;SDS011;5585;52.530;7.320;2024-01-27T14:26:02;9.95;;;2.97;;
11064;SDS011;5585;52.530;7.320;2024-01-27T14:28:28;7.88;;;3.17;;
11064;SDS011;5585;52.530;7.320;2024-01-27T14:30:55;7.78;;;3.17;;
11064;SDS011;5585;52.530;7.320;2024-01-27T14:33:21;5.75;;;2.78;;
11064;SDS011;5585;52.530;7.320;2024-01-27T14:35:48;5.05;;;2.55;;
11064;SDS011;5585;52.530;7.320;2024-01-27T14:38:15;8.07;;;3.67;;
11064;SDS011;5585;52.530;7.320;2024-01-27T14:40:42;4.90;;;2.20;;
11064;SDS011;5585;52.530;7.320;2024-01-27T14:43:09;7.55;;;2.55;;
11064;SDS011;5585;52.530;7.320;2024-01-27T14:45:37;5.97;;;2.65;;
11064;SDS011;5585;52.530;7.320;2024-01-27T14:48:04;9.48;;;3.28;;
11064;SDS011;5585;52.530;7.320;2024-01-27T14:50:30;8.77;;;2.85;;
11064;SDS011;5585;52.530;7.320;2024-01-27T14:52:57;6.13;;;2.78;;
11064;SDS011;5585;52.530;7.320;2024-01-27T14:55:27;8.33;;;3.03;;